createdAt,value
2022-08-22T00:02:02.322Z,101888.06
2022-08-22T00:02:46.943Z,101902.09
2022-08-22T00:02:49.792Z,101903.09
2022-08-22T00:02:57.283Z,101894.06
2022-08-22T00:04:45.287Z,101881.31
2022-08-22T00:07:40.643Z,101877.97
2022-08-22T00:10:55.393Z,101876.97
2022-08-22T00:14:10.001Z,101874.94
2022-08-22T00:16:40.859Z,101874.09
2022-08-22T00:19:22.711Z,101877.63
2022-08-22T00:22:00.268Z,101881.00
2022-08-22T00:24:30.706Z,101880.16
2022-08-22T00:27:04.377Z,101878.47
2022-08-22T00:30:03.412Z,101877.13
2022-08-22T00:32:38.680Z,101883.34
2022-08-22T00:35:17.600Z,101886.03
2022-08-22T00:37:52.667Z,101878.13
2022-08-22T00:40:42.456Z,101880.50
2022-08-22T00:43:39.658Z,101883.34
2022-08-22T00:46:29.122Z,101879.66
2022-08-22T00:49:16.756Z,101888.56
2022-08-22T00:52:08.219Z,101890.28
2022-08-22T00:54:34.678Z,101890.28
2022-08-22T00:57:22.539Z,101889.41
2022-08-22T01:00:09.932Z,101891.41
2022-08-22T01:02:40.746Z,101888.56
2022-08-22T01:05:25.784Z,101888.91
2022-08-22T01:07:58.170Z,101891.41
2022-08-22T01:11:00.667Z,101886.03
2022-08-22T01:14:02.357Z,101894.78
2022-08-22T01:16:59.130Z,101891.13
2022-08-22T01:19:56.989Z,101898.13
2022-08-22T01:22:54.196Z,101890.06
2022-08-22T01:25:26.753Z,101896.97
2022-08-22T01:28:23.278Z,101891.75
2022-08-22T01:31:08.532Z,101893.94
2022-08-22T01:36:52.729Z,101890.75
2022-08-22T01:39:43.742Z,101894.28
2022-08-22T01:42:16.191Z,101899.66
2022-08-22T01:44:43.685Z,101891.75
2022-08-22T01:47:39.997Z,101891.06
2022-08-22T01:50:18.623Z,101883.50
2022-08-22T01:52:48.889Z,101882.50
2022-08-22T01:55:26.690Z,101897.78
2022-08-22T01:58:00.884Z,101885.72
2022-08-22T02:00:34.641Z,101877.50
2022-08-22T02:03:02.178Z,101887.88
2022-08-22T02:05:31.761Z,101886.41
2022-08-22T02:08:14.189Z,101896.94
2022-08-22T02:11:02.306Z,101892.63
2022-08-22T02:13:49.926Z,101888.56
2022-08-22T02:16:21.549Z,101888.75
2022-08-22T02:19:03.704Z,101886.22
2022-08-22T02:21:57.612Z,101888.06
2022-08-22T02:24:33.242Z,101882.69
2022-08-22T02:27:08.347Z,101889.25
2022-08-22T02:29:44.032Z,101879.50
2022-08-22T02:32:16.638Z,101881.19
2022-08-22T02:35:01.239Z,101881.84
2022-08-22T02:37:57.514Z,101880.16
2022-08-22T02:40:34.634Z,101875.63
2022-08-22T02:43:07.643Z,101876.63
2022-08-22T02:46:03.925Z,101872.94
2022-08-22T02:48:50.489Z,101874.78
2022-08-22T02:51:39.898Z,101881.19
2022-08-22T02:54:09.614Z,101872.28
2022-08-22T02:56:45.784Z,101877.00
2022-08-22T02:59:15.330Z,101873.47
2022-08-22T03:01:45.435Z,101875.47
2022-08-22T03:04:25.260Z,101863.91
2022-08-22T03:07:15.914Z,101866.75
2022-08-22T03:10:13.228Z,101863.72
2022-08-22T03:13:00.031Z,101864.22
2022-08-22T03:15:36.465Z,101859.00
2022-08-22T03:18:16.634Z,101866.91
2022-08-22T03:20:59.121Z,101862.22
2022-08-22T03:23:39.012Z,101849.28
2022-08-22T03:26:15.490Z,101849.78
2022-08-22T03:29:11.984Z,101851.78
2022-08-22T03:31:58.468Z,101852.97
2022-08-22T03:34:27.129Z,101844.91
2022-08-22T03:37:06.038Z,101849.59
2022-08-22T03:40:14.843Z,101851.44
2022-08-22T03:43:14.906Z,101850.81
2022-08-22T03:46:10.125Z,101835.84
2022-08-22T03:48:57.536Z,101838.22
2022-08-22T03:51:42.622Z,101839.22
2022-08-22T03:54:55.278Z,101835.69
2022-08-22T03:57:24.799Z,101841.91
2022-08-22T04:00:29.688Z,101843.75
2022-08-22T04:03:14.125Z,101843.59
2022-08-22T04:05:43.732Z,101849.13
2022-08-22T04:08:31.879Z,101844.91
2022-08-22T04:11:32.334Z,101846.59
2022-08-22T04:14:13.957Z,101842.22
2022-08-22T04:16:52.822Z,101847.59
2022-08-22T04:19:52.573Z,101847.78
2022-08-22T04:22:37.475Z,101839.53
2022-08-22T04:25:14.522Z,101841.56
2022-08-22T04:27:55.800Z,101849.78
2022-08-22T04:30:32.999Z,101851.97
2022-08-22T04:33:08.780Z,101845.44
2022-08-22T04:35:35.324Z,101852.50
2022-08-22T04:38:09.993Z,101849.97
2022-08-22T04:40:46.788Z,101856.50
2022-08-22T04:43:23.706Z,101855.50
2022-08-22T04:46:01.055Z,101855.66
2022-08-22T04:48:31.821Z,101854.97
2022-08-22T04:51:03.439Z,101850.97
2022-08-22T04:53:55.778Z,101853.81
2022-08-22T04:56:59.705Z,101861.38
2022-08-22T04:59:28.600Z,101863.22
2022-08-22T05:02:06.376Z,101860.66
2022-08-22T05:04:37.966Z,101865.50
2022-08-22T05:07:13.689Z,101869.72
2022-08-22T05:09:44.711Z,101871.91
2022-08-22T05:12:16.502Z,101871.91
2022-08-22T05:14:48.659Z,101876.25
2022-08-22T05:17:19.387Z,101867.88
2022-08-22T05:22:24.476Z,101867.88
2022-08-22T05:27:28.681Z,101867.03
2022-08-22T05:30:02.351Z,101869.38
2022-08-22T05:32:38.755Z,101878.59
2022-08-22T05:35:08.671Z,101885.97
2022-08-22T05:37:43.971Z,101895.38
2022-08-22T05:40:24.690Z,101899.06
2022-08-22T05:42:53.131Z,101899.53
2022-08-22T05:45:21.726Z,101898.84
2022-08-22T05:47:53.263Z,101902.53
2022-08-22T05:50:36.522Z,101888.78
2022-08-22T05:53:10.112Z,101898.53
2022-08-22T05:55:40.087Z,101901.91
2022-08-22T05:58:16.358Z,101893.16
2022-08-22T06:00:47.297Z,101896.16
2022-08-22T06:03:18.023Z,101905.75
2022-08-22T06:05:49.986Z,101912.78
2022-08-22T06:08:26.984Z,101907.75
2022-08-22T06:11:05.639Z,101911.09
2022-08-22T06:13:41.424Z,101905.59
2022-08-22T06:16:40.813Z,101909.44
2022-08-22T06:19:19.971Z,101907.91
2022-08-22T06:21:50.569Z,101913.97
2022-08-22T06:24:23.891Z,101913.97
2022-08-22T06:26:54.085Z,101919.50
2022-08-22T06:29:32.663Z,101917.81
2022-08-22T06:32:02.395Z,101916.97
2022-08-22T06:34:35.775Z,101919.00
2022-08-22T06:37:05.655Z,101918.31
2022-08-22T06:39:39.470Z,101926.22
2022-08-22T06:42:17.068Z,101927.22
2022-08-22T06:45:07.157Z,101928.38
2022-08-22T06:47:39.512Z,101928.84
2022-08-22T06:50:15.361Z,101935.06
2022-08-22T06:52:56.905Z,101921.31
2022-08-22T06:55:26.535Z,101926.53
2022-08-22T06:58:00.518Z,101917.78
2022-08-22T07:00:27.941Z,101924.84
2022-08-22T07:03:07.565Z,101931.91
2022-08-22T07:05:40.396Z,101932.75
2022-08-22T07:08:16.227Z,101927.06
2022-08-22T07:11:01.144Z,101923.56
2022-08-22T07:13:28.389Z,101924.06
2022-08-22T07:15:59.836Z,101930.81
2022-08-22T07:18:29.718Z,101920.75
2022-08-22T07:20:59.368Z,101922.91
2022-08-22T07:23:37.954Z,101917.06
2022-08-22T07:26:07.714Z,101912.94
2022-08-22T07:28:51.326Z,101912.41
2022-08-22T07:31:41.265Z,101911.91
2022-08-22T07:34:18.025Z,101908.91
2022-08-22T07:37:05.695Z,101911.22
2022-08-22T07:40:00.541Z,101907.75
2022-08-22T07:42:51.909Z,101912.25
2022-08-22T07:45:33.329Z,101898.66
2022-08-22T07:48:26.017Z,101907.72
2022-08-22T07:51:05.759Z,101898.16
2022-08-22T07:53:43.699Z,101897.16
2022-08-22T07:56:32.472Z,101896.63
2022-08-22T07:59:09.908Z,101888.91
2022-08-22T08:01:45.766Z,101883.38
2022-08-22T08:04:17.189Z,101886.19
2022-08-22T08:06:52.848Z,101888.56
2022-08-22T08:09:20.143Z,101884.84
2022-08-22T08:11:49.244Z,101873.59
2022-08-22T08:14:16.751Z,101868.75
2022-08-22T08:17:04.013Z,101871.75
2022-08-22T08:19:33.401Z,101864.69
2022-08-22T08:22:00.477Z,101874.94
2022-08-22T08:24:36.397Z,101859.47
2022-08-22T08:27:31.128Z,101864.53
2022-08-22T08:30:02.511Z,101861.63
2022-08-22T08:32:35.087Z,101864.66
2022-08-22T08:35:13.999Z,101858.44
2022-08-22T08:37:50.408Z,101854.56
2022-08-22T08:40:28.114Z,101870.38
2022-08-22T08:43:29.552Z,101862.78
2022-08-22T08:46:07.957Z,101864.94
2022-08-22T08:48:52.816Z,101862.75
2022-08-22T08:51:38.353Z,101871.81
2022-08-22T08:54:24.993Z,101864.22
2022-08-22T08:57:08.050Z,101864.41
2022-08-22T09:02:45.603Z,101868.09
2022-08-22T09:05:40.148Z,101862.34
2022-08-22T09:08:24.739Z,101864.50
2022-08-22T09:14:38.431Z,101859.97
2022-08-22T09:17:29.873Z,101864.16
2022-08-22T09:20:27.528Z,101862.31
2022-08-22T09:23:15.063Z,101865.66
2022-08-22T09:26:11.139Z,101867.16
2022-08-22T09:29:34.632Z,101859.59
2022-08-22T09:32:21.455Z,101857.41
2022-08-22T09:35:12.912Z,101852.19
2022-08-22T09:38:09.241Z,101850.00
2022-08-22T09:40:16.606Z,101856.94
2022-08-22T09:40:57.411Z,101848.81
2022-08-22T09:44:24.492Z,101839.69
2022-08-22T09:47:09.801Z,101842.88
2022-08-22T09:50:20.786Z,101832.59
2022-08-22T09:53:05.159Z,101833.06
2022-08-22T09:55:50.216Z,101846.38
2022-08-22T09:58:32.776Z,101836.59
2022-08-22T10:01:19.684Z,101830.22
2022-08-22T10:04:04.998Z,101835.38
2022-08-22T10:06:52.974Z,101829.66
2022-08-22T10:09:31.356Z,101828.47
2022-08-22T10:12:12.480Z,101826.25
2022-08-22T10:15:16.003Z,101831.25
2022-08-22T10:18:02.922Z,101817.63
2022-08-22T10:20:40.626Z,101822.81
2022-08-22T10:23:14.005Z,101823.97
2022-08-22T10:25:48.190Z,101814.88
2022-08-22T10:28:17.765Z,101809.31
2022-08-22T10:30:54.889Z,101802.69
2022-08-22T10:33:29.088Z,101803.53
2022-08-22T10:36:18.823Z,101797.13
2022-08-22T10:38:47.631Z,101791.09
2022-08-22T10:41:53.083Z,101798.34
2022-08-22T10:44:30.253Z,101794.00
2022-08-22T10:47:15.189Z,101790.91
2022-08-22T10:50:08.794Z,101799.16
2022-08-22T10:52:46.900Z,101793.44
2022-08-22T10:55:27.151Z,101798.47
2022-08-22T10:57:56.797Z,101803.84
2022-08-22T11:00:58.357Z,101803.00
2022-08-22T11:03:39.966Z,101797.97
2022-08-22T11:06:14.619Z,101800.31
2022-08-22T11:08:50.112Z,101809.91
2022-08-22T11:11:35.966Z,101806.38
2022-08-22T11:14:41.931Z,101811.22
2022-08-22T11:17:54.218Z,101805.44
2022-08-22T11:20:37.993Z,101806.28
2022-08-22T11:23:42.022Z,101799.44
2022-08-22T11:26:14.467Z,101798.59
2022-08-22T11:29:34.334Z,101799.59
2022-08-22T11:32:25.586Z,101792.34
2022-08-22T11:35:03.580Z,101784.44
2022-08-22T11:37:44.970Z,101793.81
2022-08-22T11:40:17.247Z,101780.56
2022-08-22T11:42:49.289Z,101783.88
2022-08-22T11:45:23.527Z,101781.00
2022-08-22T11:48:09.050Z,101780.03
2022-08-22T11:50:38.650Z,101786.56
2022-08-22T11:53:36.672Z,101785.41
2022-08-22T11:56:10.376Z,101778.00
2022-08-22T11:58:49.047Z,101775.13
2022-08-22T12:01:17.321Z,101774.94
2022-08-22T12:03:55.905Z,101774.56
2022-08-22T12:06:58.774Z,101777.28
2022-08-22T12:09:50.579Z,101772.41
2022-08-22T12:12:38.791Z,101771.03
2022-08-22T12:15:21.280Z,101783.50
2022-08-22T12:18:09.685Z,101777.91
2022-08-22T12:21:11.600Z,101776.03
2022-08-22T12:23:56.981Z,101768.63
2022-08-22T12:26:33.335Z,101770.94
2022-08-22T12:29:15.280Z,101765.19
2022-08-22T12:31:58.402Z,101764.84
2022-08-22T12:34:43.682Z,101754.69
2022-08-22T12:37:52.217Z,101751.34
2022-08-22T12:40:20.084Z,101756.00
2022-08-22T12:43:06.491Z,101746.03
2022-08-22T12:45:55.415Z,101746.53
2022-08-22T12:48:34.104Z,101748.19
2022-08-22T12:51:43.416Z,101740.75
2022-08-22T12:54:51.131Z,101739.53
2022-08-22T12:57:25.099Z,101741.88
2022-08-22T13:00:05.557Z,101736.09
2022-08-22T13:02:36.071Z,101736.56
2022-08-22T13:05:19.598Z,101730.78
2022-08-22T13:07:54.533Z,101728.91
2022-08-22T13:10:32.119Z,101727.91
2022-08-22T13:13:00.536Z,101725.84
2022-08-22T13:15:42.471Z,101730.03
2022-08-22T13:18:30.753Z,101727.16
2022-08-22T13:21:02.278Z,101726.59
2022-08-22T13:23:34.385Z,101721.84
2022-08-22T13:26:31.628Z,101726.06
2022-08-22T13:29:25.581Z,101729.59
2022-08-22T13:32:00.452Z,101720.47
2022-08-22T13:34:36.863Z,101724.84
2022-08-22T13:37:11.919Z,101715.91
2022-08-22T13:39:42.508Z,101719.44
2022-08-22T13:42:30.308Z,101711.56
2022-08-22T13:45:02.479Z,101707.81
2022-08-22T13:47:32.413Z,101707.19
2022-08-22T13:50:14.603Z,101689.47
2022-08-22T13:53:05.748Z,101698.22
2022-08-22T13:55:55.241Z,101702.94
2022-08-22T13:58:33.490Z,101701.09
2022-08-22T14:01:06.887Z,101690.13
2022-08-22T14:03:54.317Z,101697.22
2022-08-22T14:06:46.903Z,101692.47
2022-08-22T14:09:54.240Z,101697.50
2022-08-22T14:12:50.549Z,101683.59
2022-08-22T14:15:45.358Z,101684.44
2022-08-22T14:18:30.313Z,101683.38
2022-08-22T14:21:20.252Z,101688.44
2022-08-22T14:23:51.964Z,101685.38
2022-08-22T14:26:32.787Z,101677.09
2022-08-22T14:29:12.028Z,101681.09
2022-08-22T14:31:38.550Z,101673.19
2022-08-22T14:34:10.540Z,101681.72
2022-08-22T14:36:47.920Z,101682.72
2022-08-22T14:39:23.559Z,101679.66
2022-08-22T14:41:59.445Z,101670.72
2022-08-22T14:45:00.487Z,101669.31
2022-08-22T14:48:13.950Z,101669.13
2022-08-22T14:51:08.486Z,101662.25
2022-08-22T14:53:37.593Z,101663.97
2022-08-22T14:56:25.001Z,101663.59
2022-08-22T14:59:07.079Z,101660.72
2022-08-22T15:01:53.194Z,101660.97
2022-08-22T15:04:29.645Z,101659.13
2022-08-22T15:06:59.784Z,101660.78
2022-08-22T15:09:36.602Z,101664.09
2022-08-22T15:12:22.020Z,101660.38
2022-08-22T15:14:52.642Z,101654.16
2022-08-22T15:17:37.223Z,101663.72
2022-08-22T15:20:28.568Z,101661.03
2022-08-22T15:23:00.717Z,101655.25
2022-08-22T15:25:35.188Z,101650.88
2022-08-22T15:28:14.250Z,101646.75
2022-08-22T15:31:06.751Z,101646.97
2022-08-22T15:33:40.166Z,101648.25
2022-08-22T15:36:17.509Z,101644.50
2022-08-22T15:38:48.282Z,101654.06
2022-08-22T15:41:36.174Z,101652.06
2022-08-22T15:44:18.295Z,101649.34
2022-08-22T15:47:24.336Z,101643.94
2022-08-22T15:50:05.458Z,101644.59
2022-08-22T15:52:35.815Z,101638.34
2022-08-22T15:55:17.996Z,101638.34
2022-08-22T15:57:51.886Z,101629.22
2022-08-22T16:00:32.745Z,101632.56
2022-08-22T16:03:28.169Z,101632.38
2022-08-22T16:05:55.795Z,101629.88
2022-08-22T16:08:32.821Z,101634.06
2022-08-22T16:11:02.567Z,101623.25
2022-08-22T16:13:32.226Z,101624.28
2022-08-22T16:16:03.931Z,101621.38
2022-08-22T16:18:45.307Z,101614.72
2022-08-22T16:21:23.788Z,101620.13
2022-08-22T16:23:50.777Z,101609.13
2022-08-22T16:26:20.237Z,101615.38
2022-08-22T16:28:58.664Z,101609.59
2022-08-22T16:31:31.876Z,101608.75
2022-08-22T16:34:18.441Z,101608.75
2022-08-22T16:37:08.576Z,101610.41
2022-08-22T16:39:46.154Z,101598.78
2022-08-22T16:42:12.644Z,101605.66
2022-08-22T16:44:56.459Z,101598.19
2022-08-22T16:47:40.723Z,101601.75
2022-08-22T16:50:16.679Z,101602.56
2022-08-22T16:52:54.468Z,101607.75
2022-08-22T16:55:30.086Z,101596.75
2022-08-22T16:58:11.896Z,101601.31
2022-08-22T17:00:44.574Z,101591.16
2022-08-22T17:03:27.147Z,101598.22
2022-08-22T17:06:04.525Z,101595.72
2022-08-22T17:09:01.870Z,101595.53
2022-08-22T17:12:05.556Z,101593.03
2022-08-22T17:14:45.900Z,101590.13
2022-08-22T17:17:18.291Z,101586.41
2022-08-22T17:19:47.659Z,101589.28
2022-08-22T17:22:41.286Z,101587.22
2022-08-22T17:25:16.817Z,101593.66
2022-08-22T17:27:44.897Z,101586.78
2022-08-22T17:30:34.590Z,101590.31
2022-08-22T17:33:27.838Z,101589.09
2022-08-22T17:36:31.898Z,101593.66
2022-08-22T17:39:10.868Z,101590.13
2022-08-22T17:41:58.683Z,101591.16
2022-08-22T17:44:49.410Z,101589.94
2022-08-22T17:47:21.711Z,101596.16
2022-08-22T17:50:05.912Z,101585.34
2022-08-22T17:52:48.413Z,101601.38
2022-08-22T17:55:19.667Z,101598.69
2022-08-22T17:58:10.824Z,101603.06
2022-08-22T18:01:04.771Z,101606.13
2022-08-22T18:03:34.165Z,101608.66
2022-08-22T18:06:09.242Z,101611.34
2022-08-22T18:11:56.071Z,101614.00
2022-08-22T18:14:55.767Z,101616.28
2022-08-22T18:18:04.602Z,101615.81
2022-08-22T18:20:56.067Z,101618.72
2022-08-22T18:23:40.088Z,101621.38
2022-08-22T18:26:20.464Z,101613.28
2022-08-22T18:29:07.377Z,101617.41
2022-08-22T18:31:54.713Z,101615.28
2022-08-22T18:34:42.455Z,101618.13
2022-08-22T18:37:30.660Z,101617.50
2022-08-22T18:40:04.058Z,101629.34
2022-08-22T18:42:39.560Z,101625.16
2022-08-22T18:45:06.162Z,101630.94
2022-08-22T18:47:34.541Z,101626.38
2022-08-22T18:50:23.784Z,101634.47
2022-08-22T18:52:55.805Z,101631.59
2022-08-22T18:55:44.928Z,101635.13
2022-08-22T18:58:37.537Z,101645.94
2022-08-22T19:01:50.892Z,101644.25
2022-08-22T19:04:29.795Z,101650.50
2022-08-22T19:07:29.902Z,101652.34
2022-08-22T19:10:36.179Z,101655.25
2022-08-22T19:13:38.113Z,101653.56
2022-08-22T19:16:13.806Z,101659.16
2022-08-22T19:18:51.356Z,101654.97
2022-08-22T19:21:41.632Z,101665.41
2022-08-22T19:24:12.714Z,101662.69
2022-08-22T19:26:42.966Z,101651.66
2022-08-22T19:29:16.029Z,101665.03
2022-08-22T19:31:57.554Z,101665.84
2022-08-22T19:34:29.602Z,101659.63
2022-08-22T19:37:31.021Z,101668.56
2022-08-22T19:40:08.627Z,101667.72
2022-08-22T19:42:38.045Z,101665.03
2022-08-22T19:45:19.521Z,101667.06
2022-08-22T19:47:58.867Z,101666.03
2022-08-22T19:50:31.893Z,101657.50
2022-08-22T19:53:14.238Z,101664.09
2022-08-22T19:55:56.283Z,101670.28
2022-08-22T19:59:00.435Z,101669.19
2022-08-22T20:01:50.924Z,101663.75
2022-08-22T20:04:37.259Z,101659.09
2022-08-22T20:07:24.750Z,101652.81
2022-08-22T20:09:51.209Z,101658.56
2022-08-22T20:12:54.442Z,101661.00
2022-08-22T20:15:27.122Z,101659.72
2022-08-22T20:20:57.205Z,101656.25
2022-08-22T20:23:29.563Z,101660.63
2022-08-22T20:25:57.146Z,101658.53
2022-08-22T20:28:50.746Z,101658.06
2022-08-22T20:31:24.513Z,101652.38
2022-08-22T20:34:03.235Z,101647.56
2022-08-22T20:36:30.574Z,101657.34
2022-08-22T20:39:05.730Z,101657.72
2022-08-22T20:41:40.400Z,101647.47
2022-08-22T20:44:15.966Z,101645.16
2022-08-22T20:46:43.577Z,101649.28
2022-08-22T20:49:20.039Z,101649.47
2022-08-22T20:52:02.956Z,101641.38
2022-08-22T20:54:33.197Z,101646.47
2022-08-22T20:57:03.145Z,101645.00
2022-08-22T20:59:36.056Z,101638.94
2022-08-22T21:02:02.637Z,101641.84
2022-08-22T21:04:54.086Z,101647.44
2022-08-22T21:07:42.631Z,101642.41
2022-08-22T21:10:38.334Z,101648.81
2022-08-22T21:13:11.459Z,101637.56
2022-08-22T21:15:45.760Z,101645.00
2022-08-22T21:18:24.840Z,101637.50
2022-08-22T21:20:51.384Z,101644.56
2022-08-22T21:23:19.499Z,101652.63
2022-08-22T21:25:56.641Z,101650.13
2022-08-22T21:28:31.781Z,101657.63
2022-08-22T21:31:01.557Z,101661.81
2022-08-22T21:33:28.207Z,101653.56
2022-08-22T21:35:57.878Z,101655.22
2022-08-22T21:38:25.381Z,101644.63
2022-08-22T21:40:52.392Z,101635.88
2022-08-22T21:43:34.050Z,101645.00
2022-08-22T21:46:00.989Z,101635.44
2022-08-22T21:48:36.058Z,101645.22
2022-08-22T21:51:38.836Z,101639.16
2022-08-22T21:54:24.147Z,101643.91
2022-08-22T21:56:53.256Z,101642.59
2022-08-22T21:59:50.826Z,101631.53
2022-08-22T22:02:37.557Z,101634.22
2022-08-22T22:05:08.140Z,101633.16
2022-08-22T22:07:40.153Z,101634.22
2022-08-22T22:10:11.585Z,101631.69
2022-08-22T22:12:40.864Z,101637.75
2022-08-22T22:15:08.299Z,101644.78
2022-08-22T22:17:34.798Z,101631.31
2022-08-22T22:20:01.370Z,101628.81
2022-08-22T22:22:27.949Z,101629.84
2022-08-22T22:24:54.486Z,101637.09
2022-08-22T22:27:21.115Z,101627.22
2022-08-22T22:29:47.610Z,101642.19
2022-08-22T22:32:15.082Z,101634.03
2022-08-22T22:34:41.598Z,101640.03
2022-08-22T22:37:10.112Z,101637.75
2022-08-22T22:39:37.092Z,101635.88
2022-08-22T22:42:04.234Z,101629.84
2022-08-22T22:44:31.155Z,101635.66
2022-08-22T22:46:59.725Z,101643.22
2022-08-22T22:49:26.222Z,101641.34
2022-08-22T22:51:52.866Z,101643.03
2022-08-22T22:54:20.405Z,101639.50
2022-08-22T22:56:54.434Z,101642.38
2022-08-22T22:59:24.783Z,101639.19
2022-08-22T23:02:06.929Z,101633.19
2022-08-22T23:04:36.168Z,101634.56
2022-08-22T23:07:03.109Z,101638.63
2022-08-22T23:09:38.730Z,101634.44
2022-08-22T23:12:13.388Z,101635.47
2022-08-22T23:14:39.937Z,101640.84
2022-08-22T23:17:07.181Z,101640.84
2022-08-22T23:19:33.865Z,101634.44
2022-08-22T23:22:01.934Z,101634.63
2022-08-22T23:24:31.157Z,101637.16
2022-08-22T23:26:58.921Z,101632.78
2022-08-22T23:29:25.973Z,101635.47
2022-08-22T23:32:01.521Z,101634.63
2022-08-22T23:34:32.750Z,101636.03
2022-08-22T23:37:01.915Z,101629.63
2022-08-22T23:39:34.474Z,101623.59
2022-08-22T23:42:02.470Z,101628.16
2022-08-22T23:44:32.391Z,101620.25
2022-08-22T23:46:59.865Z,101619.94
2022-08-22T23:49:27.321Z,101623.47
2022-08-22T23:51:54.320Z,101619.09
2022-08-22T23:54:22.595Z,101619.50
2022-08-22T23:56:54.848Z,101618.84
2022-08-22T23:59:30.521Z,101617.16
